Time;durP1;ratioP1;P1;durP2;ratioP2;P2;SDS_P1;SDS_P2;PMS_P1;PMS_P2;Temp;Humidity;BMP_temperature;BMP_pressure;BME280_temperature;BME280_humidity;BME280_pressure;Samples;Min_cycle;Max_cycle;Signal;HPM_P1;HPM_P2
2022/11/28 00:02:00;;;;;;;11.00;2.08;;;22.30;99.90;;;;;;5075023;28;20233;-80
2022/11/28 00:04:31;;;;;;;11.05;2.30;;;22.30;99.90;;;;;;5074484;28;20294;-80
2022/11/28 00:07:02;;;;;;;9.32;1.67;;;22.30;99.90;;;;;;5075271;28;20204;-77
2022/11/28 00:09:33;;;;;;;8.85;1.73;;;22.50;99.90;;;;;;5069488;28;20192;-79
2022/11/28 00:12:04;;;;;;;9.50;1.80;;;22.70;99.90;;;;;;5075055;28;20563;-79
2022/11/28 00:14:35;;;;;;;9.85;1.80;;;22.80;99.90;;;;;;5072295;28;20278;-79
2022/11/28 00:17:08;;;;;;;7.75;1.80;;;22.90;99.90;;;;;;5071040;28;20199;-79
2022/11/28 00:19:39;;;;;;;9.10;1.80;;;23.00;99.90;;;;;;5070089;28;20234;-80
2022/11/28 00:22:10;;;;;;;9.55;1.90;;;23.20;99.90;;;;;;5072010;28;20203;-80
2022/11/28 00:24:42;;;;;;;10.90;1.98;;;23.20;99.90;;;;;;5072201;28;20210;-80
2022/11/28 00:27:13;;;;;;;11.23;1.80;;;23.20;99.90;;;;;;5068681;28;20244;-80
2022/11/28 00:29:44;;;;;;;8.65;2.13;;;23.20;99.90;;;;;;5071415;28;21049;-79
2022/11/28 00:32:17;;;;;;;7.15;1.50;;;23.40;99.90;;;;;;5073892;28;20204;-78
2022/11/28 00:34:48;;;;;;;7.55;1.77;;;23.50;99.90;;;;;;5072014;28;20287;-79
2022/11/28 00:37:19;;;;;;;9.80;1.67;;;23.70;99.90;;;;;;5066791;28;20196;-78
2022/11/28 00:39:50;;;;;;;7.80;2.00;;;23.70;99.90;;;;;;5053238;28;20266;-79
2022/11/28 00:42:22;;;;;;;8.77;1.90;;;23.70;99.90;;;;;;5052833;28;20200;-79
2022/11/28 00:44:52;;;;;;;8.30;1.73;;;23.70;99.90;;;;;;5052696;28;20204;-79
2022/11/28 00:47:25;;;;;;;8.15;2.00;;;23.60;99.90;;;;;;5066272;28;20195;-79
2022/11/28 00:49:56;;;;;;;8.00;1.75;;;23.70;99.90;;;;;;5071037;28;20204;-79
2022/11/28 00:52:27;;;;;;;9.52;2.33;;;23.80;99.90;;;;;;5067924;28;20278;-79
2022/11/28 00:54:58;;;;;;;7.25;1.95;;;23.90;99.90;;;;;;5071344;28;20228;-80
2022/11/28 00:57:28;;;;;;;6.47;1.70;;;23.90;99.90;;;;;;5071508;28;20216;-79
2022/11/28 00:59:59;;;;;;;9.00;1.83;;;23.80;99.90;;;;;;5064050;28;20207;-80
2022/11/28 01:02:32;;;;;;;8.32;1.90;;;23.80;99.90;;;;;;5070307;28;20633;-80
2022/11/28 01:05:03;;;;;;;11.82;2.10;;;23.70;99.90;;;;;;5069317;28;20238;-80
2022/11/28 01:07:35;;;;;;;6.95;1.80;;;23.70;99.90;;;;;;5071161;28;20202;-80
2022/11/28 01:10:06;;;;;;;11.55;1.90;;;23.70;99.90;;;;;;5070953;28;20547;-81
2022/11/28 01:12:37;;;;;;;6.43;1.88;;;23.50;99.90;;;;;;5071338;28;20208;-81
2022/11/28 01:15:09;;;;;;;7.85;1.92;;;23.40;99.90;;;;;;5071431;28;20199;-81
2022/11/28 01:17:42;;;;;;;8.52;1.92;;;23.30;99.90;;;;;;5057292;28;20655;-81
2022/11/28 01:20:14;;;;;;;9.38;1.90;;;23.20;99.90;;;;;;5051044;28;20203;-80
2022/11/28 01:22:45;;;;;;;8.52;1.92;;;23.10;99.90;;;;;;5057418;28;20210;-80
2022/11/28 01:25:17;;;;;;;6.85;1.73;;;23.00;99.90;;;;;;5070773;28;20202;-81
2022/11/28 01:27:48;;;;;;;8.35;1.70;;;22.90;99.90;;;;;;5070022;28;20202;-80
2022/11/28 01:30:19;;;;;;;9.88;2.22;;;22.90;99.90;;;;;;5070852;28;20202;-80
2022/11/28 01:32:52;;;;;;;8.60;1.88;;;22.90;99.90;;;;;;5070936;28;20191;-81
2022/11/28 01:35:23;;;;;;;7.85;1.92;;;23.00;99.90;;;;;;5051603;28;20274;-81
2022/11/28 01:37:54;;;;;;;7.90;2.00;;;23.10;99.90;;;;;;5051070;28;20283;-80
2022/11/28 01:40:25;;;;;;;9.15;1.98;;;23.20;99.90;;;;;;5058286;28;20199;-81
2022/11/28 01:42:56;;;;;;;8.98;1.98;;;23.40;99.90;;;;;;5071744;28;20257;-81
2022/11/28 01:45:29;;;;;;;7.32;2.20;;;23.50;99.90;;;;;;5070748;28;20635;-81
2022/11/28 01:48:04;;;;;;;9.88;2.50;;;23.50;99.90;;;;;;5070651;28;20200;-81
2022/11/28 01:50:37;;;;;;;7.53;1.80;;;23.70;99.90;;;;;;5065205;28;20196;-81
2022/11/28 01:53:10;;;;;;;10.63;2.05;;;23.90;99.90;;;;;;5070282;28;20192;-80
2022/11/28 01:55:45;;;;;;;7.57;1.80;;;24.00;99.90;;;;;;5070282;28;20228;-81
2022/11/28 01:58:16;;;;;;;10.85;2.40;;;24.20;99.90;;;;;;5070346;28;20223;-80
2022/11/28 02:00:48;;;;;;;9.68;2.10;;;24.50;99.90;;;;;;5070912;28;20222;-80
2022/11/28 02:03:23;;;;;;;7.38;1.95;;;24.80;99.90;;;;;;5070543;28;20674;-80
2022/11/28 02:05:54;;;;;;;8.68;1.90;;;25.10;99.90;;;;;;5070052;28;20195;-81
2022/11/28 02:08:25;;;;;;;11.57;2.20;;;25.30;99.90;;;;;;5062602;28;20578;-80
2022/11/28 02:11:18;;;;;;;11.13;2.03;;;25.20;99.90;;;;;;5070336;28;20203;-79
2022/11/28 02:13:56;;;;;;;7.70;1.88;;;25.00;99.90;;;;;;5069775;28;20196;-80
2022/11/28 02:16:44;;;;;;;9.07;1.88;;;24.90;99.90;;;;;;5070102;28;20307;-80
2022/11/28 02:19:47;;;;;;;8.82;1.67;;;25.00;99.90;;;;;;5070075;28;20730;-80
2022/11/28 02:22:24;;;;;;;7.60;1.63;;;25.10;99.90;;;;;;5070041;28;20211;-80
2022/11/28 02:25:24;;;;;;;6.88;1.90;;;24.90;99.90;;;;;;5063177;28;20200;-79
2022/11/28 02:28:18;;;;;;;10.20;1.90;;;24.50;99.90;;;;;;5051023;28;20207;-80
2022/11/28 02:30:59;;;;;;;9.25;1.90;;;24.30;99.90;;;;;;5050345;28;20205;-79
2022/11/28 02:33:37;;;;;;;9.75;2.30;;;24.00;99.90;;;;;;5067013;28;20662;-80
2022/11/28 02:36:14;;;;;;;9.77;1.80;;;23.80;99.90;;;;;;5070381;28;20195;-81
2022/11/28 02:38:59;;;;;;;8.13;1.77;;;23.70;99.90;;;;;;5050048;28;20224;-79
2022/11/28 02:41:36;;;;;;;9.90;1.80;;;23.90;99.90;;;;;;5054220;28;20241;-80
2022/11/28 02:44:13;;;;;;;9.60;2.00;;;24.20;99.90;;;;;;5082613;28;20267;-78
2022/11/28 02:46:52;;;;;;;9.65;1.98;;;24.30;99.90;;;;;;5080152;28;20561;-80
2022/11/28 02:49:30;;;;;;;11.20;2.17;;;24.50;99.90;;;;;;5070791;28;20753;-79
2022/11/28 02:52:04;;;;;;;8.15;1.80;;;24.60;99.90;;;;;;5050339;28;20196;-80
2022/11/28 02:54:36;;;;;;;7.30;1.80;;;24.70;99.90;;;;;;5049793;28;20231;-79
2022/11/28 02:57:07;;;;;;;7.15;1.63;;;25.10;99.90;;;;;;5050456;28;20375;-80
2022/11/28 02:59:50;;;;;;;9.60;2.10;;;25.30;99.90;;;;;;5063081;28;20239;-80
2022/11/28 03:02:27;;;;;;;10.35;2.03;;;25.00;99.90;;;;;;5070388;28;20192;-80
2022/11/28 03:05:10;;;;;;;10.23;1.92;;;25.00;99.90;;;;;;5069580;28;20245;-80
2022/11/28 03:07:55;;;;;;;8.63;1.85;;;24.90;99.90;;;;;;5069684;28;20184;-80
2022/11/28 03:10:31;;;;;;;9.23;2.13;;;25.10;99.90;;;;;;5072626;28;20267;-80
2022/11/28 03:13:11;;;;;;;6.63;1.65;;;25.40;99.90;;;;;;5073853;28;20666;-80
2022/11/28 03:16:07;;;;;;;10.15;1.80;;;25.30;99.90;;;;;;5073893;28;20199;-80
2022/11/28 03:18:44;;;;;;;8.85;2.20;;;25.50;99.90;;;;;;5073995;28;20226;-80
2022/11/28 03:21:25;;;;;;;14.55;2.10;;;25.80;99.90;;;;;;5073870;28;20196;-80
2022/11/28 03:24:01;;;;;;;9.98;1.90;;;25.70;99.90;;;;;;5073750;28;20695;-80
2022/11/28 03:26:39;;;;;;;8.60;1.88;;;25.70;99.90;;;;;;5073534;28;20246;-80
2022/11/28 03:29:14;;;;;;;6.47;1.67;;;25.70;99.90;;;;;;5073252;28;20565;-80
2022/11/28 03:31:48;;;;;;;9.27;1.83;;;25.50;99.90;;;;;;5073694;28;20573;-80
2022/11/28 03:34:21;;;;;;;12.40;1.98;;;25.30;99.90;;;;;;5054544;28;20201;-81
2022/11/28 03:36:59;;;;;;;9.35;2.00;;;25.10;99.90;;;;;;5070051;28;20196;-81
2022/11/28 03:39:36;;;;;;;9.20;2.30;;;25.20;99.90;;;;;;5073150;28;20307;-81
2022/11/28 03:42:12;;;;;;;8.88;1.90;;;25.00;99.90;;;;;;5073014;28;20635;-81
2022/11/28 03:44:48;;;;;;;11.93;2.15;;;24.90;99.90;;;;;;5073740;28;20689;-80
2022/11/28 03:47:19;;;;;;;8.75;1.63;;;25.20;99.90;;;;;;5053830;28;20608;-81
2022/11/28 03:49:54;;;;;;;9.20;2.13;;;25.60;99.90;;;;;;5053581;28;20205;-81
2022/11/28 03:52:30;;;;;;;7.53;1.73;;;25.80;99.90;;;;;;5053511;28;20654;-80
2022/11/28 03:55:05;;;;;;;9.93;2.00;;;25.90;99.90;;;;;;5052829;28;20260;-80
2022/11/28 03:57:39;;;;;;;9.85;1.83;;;25.90;99.90;;;;;;5065907;28;20219;-80
2022/11/28 04:00:12;;;;;;;9.85;2.13;;;26.00;99.90;;;;;;5074022;28;20216;-80
2022/11/28 04:02:54;;;;;;;8.93;1.70;;;25.90;99.90;;;;;;5074880;28;20206;-80
2022/11/28 04:05:32;;;;;;;6.75;1.70;;;25.50;99.90;;;;;;5074061;28;20196;-80
2022/11/28 04:08:13;;;;;;;8.75;1.77;;;25.30;99.90;;;;;;5057193;28;20287;-79
2022/11/28 04:10:47;;;;;;;8.55;1.90;;;25.10;99.90;;;;;;5063495;28;20282;-80
2022/11/28 04:13:22;;;;;;;7.90;1.60;;;25.00;99.90;;;;;;5073807;28;20212;-80
2022/11/28 04:16:00;;;;;;;6.00;1.67;;;25.20;99.90;;;;;;5074095;28;20203;-80
2022/11/28 04:18:39;;;;;;;8.43;2.00;;;25.40;99.90;;;;;;5073559;28;20218;-81
2022/11/28 04:21:16;;;;;;;8.57;1.85;;;25.70;99.90;;;;;;5071923;28;20203;-80
2022/11/28 04:23:53;;;;;;;9.40;2.05;;;25.80;99.90;;;;;;5074719;28;20574;-80
2022/11/28 04:26:29;;;;;;;9.50;1.80;;;25.60;99.90;;;;;;5072803;28;20227;-80
2022/11/28 04:29:03;;;;;;;9.82;1.80;;;25.30;99.90;;;;;;5072243;28;20206;-80
2022/11/28 04:31:36;;;;;;;7.65;1.70;;;25.40;99.90;;;;;;5072432;28;20647;-80
2022/11/28 04:34:10;;;;;;;9.32;2.33;;;25.20;99.90;;;;;;5072459;28;20658;-80
2022/11/28 04:36:44;;;;;;;8.15;1.70;;;25.30;99.90;;;;;;5073157;28;20199;-80
2022/11/28 04:39:20;;;;;;;8.15;1.90;;;25.50;99.90;;;;;;5071596;28;20222;-79
2022/11/28 04:41:55;;;;;;;8.00;1.55;;;25.50;99.90;;;;;;5071322;28;20210;-79
2022/11/28 04:44:31;;;;;;;9.50;1.70;;;25.70;99.90;;;;;;5073317;28;20235;-80
2022/11/28 04:47:02;;;;;;;8.93;1.63;;;25.90;99.90;;;;;;5072293;28;20566;-80
2022/11/28 04:49:33;;;;;;;7.70;1.80;;;26.20;99.90;;;;;;5073716;28;20286;-80
2022/11/28 04:52:08;;;;;;;8.35;2.03;;;26.20;99.90;;;;;;5071733;28;20203;-80
2022/11/28 04:54:49;;;;;;;5.15;1.60;;;26.60;99.90;;;;;;5071973;28;20237;-78
2022/11/28 04:57:25;;;;;;;10.00;2.00;;;26.80;99.90;;;;;;5070295;28;20224;-80
2022/11/28 04:59:57;;;;;;;6.57;1.67;;;26.70;99.90;;;;;;5052860;28;20224;-79
2022/11/28 05:02:29;;;;;;;5.90;1.52;;;26.40;99.90;;;;;;5072166;28;20192;-80
2022/11/28 05:05:00;;;;;;;10.05;1.83;;;26.40;99.90;;;;;;5070706;28;20204;-80
2022/11/28 05:07:31;;;;;;;5.15;1.45;;;26.60;99.90;;;;;;5070063;28;20202;-80
2022/11/28 05:10:03;;;;;;;5.90;1.70;;;26.80;99.90;;;;;;5071571;28;20667;-81
2022/11/28 05:12:34;;;;;;;10.00;1.70;;;26.90;99.90;;;;;;5071060;28;20196;-80
2022/11/28 05:15:05;;;;;;;8.95;1.95;;;26.90;99.90;;;;;;5062227;28;20283;-80
2022/11/28 05:17:37;;;;;;;7.68;1.88;;;26.40;99.90;;;;;;5066427;28;20200;-80
2022/11/28 05:20:08;;;;;;;8.05;1.80;;;26.50;99.90;;;;;;5069865;28;20227;-80
2022/11/28 05:22:39;;;;;;;9.57;1.75;;;26.90;99.90;;;;;;5069686;28;20199;-80
2022/11/28 05:25:12;;;;;;;5.30;1.30;;;27.20;99.90;;;;;;5070976;28;20207;-80
2022/11/28 05:27:46;;;;;;;7.60;1.63;;;27.20;99.90;;;;;;5070363;28;20192;-80
2022/11/28 05:30:18;;;;;;;6.38;1.65;;;27.30;99.90;;;;;;5071718;28;20200;-80
2022/11/28 05:32:48;;;;;;;6.43;1.77;;;27.30;99.90;;;;;;5070689;28;20654;-80
2022/11/28 05:35:19;;;;;;;9.95;1.73;;;27.20;99.90;;;;;;5071564;28;20206;-80
2022/11/28 05:37:50;;;;;;;8.13;1.70;;;27.20;99.90;;;;;;5061994;28;20206;-80
2022/11/28 05:40:23;;;;;;;7.30;1.85;;;27.40;99.90;;;;;;5068836;28;20231;-80
2022/11/28 05:42:54;;;;;;;7.18;1.85;;;27.30;99.90;;;;;;5064870;28;20196;-79
2022/11/28 05:45:25;;;;;;;9.50;1.90;;;27.40;99.90;;;;;;5069724;28;20207;-79
2022/11/28 05:47:59;;;;;;;11.05;1.95;;;27.90;99.90;;;;;;5070524;28;20662;-80
2022/11/28 05:50:30;;;;;;;7.13;1.63;;;27.80;99.90;;;;;;5051467;28;20208;-79
2022/11/28 05:53:00;;;;;;;3.75;1.13;;;27.90;99.90;;;;;;5064416;28;20200;-79
2022/11/28 05:55:33;;;;;;;7.50;1.70;;;27.70;99.90;;;;;;5070252;28;20225;-79
2022/11/28 05:58:04;;;;;;;7.47;1.58;;;27.80;99.90;;;;;;5070379;28;20195;-79
2022/11/28 06:00:35;;;;;;;7.47;1.70;;;27.80;99.90;;;;;;5070268;28;20597;-79
2022/11/28 06:03:07;;;;;;;6.72;1.60;;;27.70;99.90;;;;;;5069993;28;20192;-79
2022/11/28 06:05:40;;;;;;;10.32;1.73;;;27.80;99.90;;;;;;5067653;28;20198;-79
2022/11/28 06:08:11;;;;;;;6.05;1.38;;;27.60;99.90;;;;;;5069793;28;20200;-79
2022/11/28 06:10:44;;;;;;;8.05;1.90;;;27.50;99.90;;;;;;5070083;28;20564;-79
2022/11/28 06:13:14;;;;;;;8.65;1.67;;;27.30;99.90;;;;;;5069632;28;20203;-80
2022/11/28 06:15:46;;;;;;;8.32;1.88;;;27.50;99.90;;;;;;5070091;28;20195;-79
2022/11/28 06:18:17;;;;;;;10.45;1.88;;;27.60;99.90;;;;;;5070069;28;20200;-79
2022/11/28 06:20:47;;;;;;;6.30;1.65;;;27.70;99.90;;;;;;5070692;28;20333;-79
2022/11/28 06:23:18;;;;;;;7.47;1.67;;;27.60;99.90;;;;;;5059564;28;20215;-80
2022/11/28 06:25:51;;;;;;;8.57;1.92;;;27.70;99.90;;;;;;5070318;28;20200;-79
2022/11/28 06:28:22;;;;;;;6.90;1.73;;;27.80;99.90;;;;;;5070336;28;20280;-80
2022/11/28 06:30:52;;;;;;;9.15;1.77;;;27.70;99.90;;;;;;5068419;28;20196;-79
2022/11/28 06:33:23;;;;;;;9.07;1.95;;;27.80;99.90;;;;;;5050061;28;20287;-80
2022/11/28 06:36:00;;;;;;;5.72;1.38;;;27.80;99.90;;;;;;5050654;28;20198;-80
2022/11/28 06:38:31;;;;;;;5.65;1.67;;;27.40;99.90;;;;;;5049767;28;20204;-80
2022/11/28 06:41:05;;;;;;;4.85;1.65;;;27.60;99.90;;;;;;5050287;28;20232;-80
2022/11/28 06:43:37;;;;;;;7.65;1.80;;;28.00;99.90;;;;;;5050601;28;20249;-81
2022/11/28 06:46:12;;;;;;;7.40;1.77;;;28.40;99.90;;;;;;5074177;28;20709;-80
2022/11/28 06:48:43;;;;;;;6.78;1.63;;;28.60;99.90;;;;;;5073908;28;20196;-82
2022/11/28 06:51:14;;;;;;;6.82;1.75;;;29.00;99.90;;;;;;5074960;28;20209;-80
2022/11/28 06:53:45;;;;;;;7.43;1.38;;;29.30;99.90;;;;;;5075480;28;20737;-79
2022/11/28 06:56:20;;;;;;;6.38;1.60;;;29.40;99.90;;;;;;5072808;28;20223;-80
2022/11/28 06:58:55;;;;;;;5.10;1.42;;;29.40;99.90;;;;;;5054644;28;20287;-80
2022/11/28 07:01:28;;;;;;;7.05;1.38;;;29.10;99.90;;;;;;5065486;28;20296;-80
2022/11/28 07:03:59;;;;;;;7.65;1.48;;;29.10;99.90;;;;;;5074170;28;20203;-80
2022/11/28 07:06:30;;;;;;;4.82;1.33;;;28.90;99.90;;;;;;5074012;28;20234;-80
2022/11/28 07:09:01;;;;;;;5.20;1.70;;;29.00;99.90;;;;;;5073866;28;20206;-79
2022/11/28 07:11:38;;;;;;;5.20;1.20;;;29.20;99.90;;;;;;5077135;28;20196;-80
2022/11/28 07:14:09;;;;;;;6.97;1.58;;;28.90;99.90;;;;;;5075101;28;20632;-78
2022/11/28 07:16:41;;;;;;;6.93;1.88;;;29.20;99.90;;;;;;5073461;28;20208;-80
2022/11/28 07:19:21;;;;;;;5.28;1.10;;;29.40;99.90;;;;;;5073124;28;20252;-79
2022/11/28 07:21:52;;;;;;;6.05;1.48;;;29.50;99.90;;;;;;5073343;28;20224;-80
2022/11/28 07:24:23;;;;;;;7.70;1.55;;;29.30;99.90;;;;;;5072974;28;20671;-79
2022/11/28 07:26:56;;;;;;;6.18;1.60;;;29.60;99.90;;;;;;5073124;28;20575;-79
2022/11/28 07:29:34;;;;;;;5.18;1.38;;;29.40;99.90;;;;;;5073150;28;20578;-79
2022/11/28 07:32:05;;;;;;;6.15;1.45;;;28.90;99.90;;;;;;5053655;28;20574;-79
2022/11/28 07:34:36;;;;;;;5.68;1.33;;;28.80;99.90;;;;;;5052816;28;20208;-79
2022/11/28 07:37:08;;;;;;;5.38;1.40;;;28.50;99.90;;;;;;5072510;28;20210;-79
2022/11/28 07:39:39;;;;;;;9.40;1.50;;;28.80;99.90;;;;;;5072849;28;20200;-79
2022/11/28 07:42:11;;;;;;;3.22;1.10;;;28.30;99.90;;;;;;5072836;28;20231;-80
2022/11/28 07:44:42;;;;;;;4.55;1.30;;;28.10;99.90;;;;;;5073037;28;20199;-78
2022/11/28 07:47:16;;;;;;;6.40;1.40;;;27.80;99.90;;;;;;5071195;28;20192;-79
2022/11/28 07:49:48;;;;;;;3.50;1.17;;;27.60;99.90;;;;;;5053320;28;20201;-79
2022/11/28 07:52:18;;;;;;;5.25;1.13;;;27.20;99.90;;;;;;5053050;28;20284;-80
2022/11/28 07:54:51;;;;;;;4.15;1.35;;;26.90;99.90;;;;;;5053207;28;20233;-79
2022/11/28 07:57:24;;;;;;;6.10;1.60;;;26.50;99.90;;;;;;5052911;28;20604;-79
2022/11/28 07:59:54;;;;;;;5.47;1.75;;;26.10;99.90;;;;;;5071445;28;20647;-79
2022/11/28 08:02:25;;;;;;;5.75;1.52;;;25.60;99.90;;;;;;5053406;28;20236;-80
2022/11/28 08:04:57;;;;;;;7.72;1.42;;;25.30;99.90;;;;;;5054141;28;20200;-81
2022/11/28 08:07:28;;;;;;;5.05;1.38;;;24.80;99.90;;;;;;5052876;28;20284;-80
2022/11/28 08:09:58;;;;;;;6.07;1.20;;;24.60;99.90;;;;;;5053117;28;20722;-80
2022/11/28 08:12:31;;;;;;;4.90;1.20;;;24.40;99.90;;;;;;5070820;28;20539;-80
2022/11/28 08:15:02;;;;;;;6.45;1.52;;;24.30;99.90;;;;;;5072580;28;20228;-79
2022/11/28 08:17:33;;;;;;;4.70;1.58;;;24.20;99.90;;;;;;5072545;28;20200;-80
2022/11/28 08:20:04;;;;;;;8.63;1.85;;;24.00;99.90;;;;;;5072441;28;20611;-80
2022/11/28 08:22:35;;;;;;;6.05;1.55;;;23.80;99.90;;;;;;5059273;28;20648;-80
2022/11/28 08:25:06;;;;;;;6.50;1.83;;;23.50;99.90;;;;;;5054739;28;20209;-81
2022/11/28 08:27:38;;;;;;;4.55;1.30;;;23.50;99.90;;;;;;5063711;28;20646;-79
2022/11/28 08:30:10;;;;;;;7.97;1.67;;;23.40;99.90;;;;;;5054673;28;20200;-79
2022/11/28 08:32:41;;;;;;;7.57;1.50;;;23.40;99.90;;;;;;5052124;28;20287;-79
2022/11/28 08:35:12;;;;;;;6.78;1.50;;;23.30;99.90;;;;;;5051957;28;20192;-79
2022/11/28 08:37:43;;;;;;;6.85;1.40;;;23.10;99.90;;;;;;5053274;28;20204;-80
2022/11/28 08:40:14;;;;;;;5.15;1.33;;;23.00;99.90;;;;;;5055743;28;20618;-80
2022/11/28 08:42:47;;;;;;;7.32;1.60;;;23.00;99.90;;;;;;5061672;28;20206;-80
2022/11/28 08:45:18;;;;;;;6.93;1.50;;;22.80;99.90;;;;;;5073518;28;20291;-80
2022/11/28 08:47:49;;;;;;;3.88;1.27;;;22.80;99.90;;;;;;5074607;28;20202;-80
2022/11/28 08:50:20;;;;;;;7.63;1.50;;;22.80;99.90;;;;;;5069904;28;20250;-80
2022/11/28 08:52:51;;;;;;;6.03;1.40;;;22.80;99.90;;;;;;5063225;28;20215;-80
2022/11/28 08:55:21;;;;;;;6.03;1.40;;;22.70;99.90;;;;;;5073235;28;20236;-80
2022/11/28 08:57:55;;;;;;;10.15;1.85;;;22.60;99.90;;;;;;5075679;28;20202;-80
2022/11/28 09:00:25;;;;;;;5.68;1.48;;;22.50;99.90;;;;;;5057330;28;20769;-80
2022/11/28 09:02:56;;;;;;;4.32;1.40;;;22.40;99.90;;;;;;5053212;28;20215;-80
2022/11/28 09:05:27;;;;;;;8.02;1.27;;;22.40;99.90;;;;;;5068063;28;20196;-80
2022/11/28 09:07:59;;;;;;;4.20;1.15;;;22.40;99.90;;;;;;5072417;28;20192;-80
2022/11/28 09:10:29;;;;;;;6.60;1.50;;;22.30;99.90;;;;;;5071334;28;20250;-81
2022/11/28 09:13:03;;;;;;;5.72;1.25;;;22.30;99.90;;;;;;5070878;28;20203;-80
2022/11/28 09:15:35;;;;;;;7.40;1.27;;;22.30;99.90;;;;;;5071499;28;20210;-81
2022/11/28 09:18:07;;;;;;;5.78;1.42;;;22.30;99.90;;;;;;5070809;28;20210;-83
2022/11/28 09:20:38;;;;;;;7.53;1.42;;;22.20;99.90;;;;;;5074674;28;20216;-81
2022/11/28 09:23:10;;;;;;;8.27;1.70;;;22.20;99.90;;;;;;5081016;28;20200;-80
2022/11/28 09:25:41;;;;;;;2.88;1.30;;;22.20;99.90;;;;;;5075457;28;20196;-81
2022/11/28 09:28:14;;;;;;;8.23;1.40;;;22.00;99.90;;;;;;5075721;28;20228;-80
2022/11/28 09:30:45;;;;;;;4.78;1.40;;;22.00;99.90;;;;;;5068244;28;20196;-81
2022/11/28 09:33:16;;;;;;;6.80;1.60;;;22.10;99.90;;;;;;5070800;28;20202;-81
2022/11/28 09:35:47;;;;;;;6.47;1.60;;;22.00;99.90;;;;;;5058193;28;20697;-80
2022/11/28 09:38:18;;;;;;;5.50;1.40;;;22.00;99.90;;;;;;5050772;28;20570;-81
2022/11/28 09:40:49;;;;;;;5.65;1.75;;;22.00;99.90;;;;;;5050805;28;20259;-80
2022/11/28 09:43:28;;;;;;;4.97;1.58;;;22.00;99.90;;;;;;5050623;28;20196;-79
2022/11/28 09:45:59;;;;;;;10.07;1.70;;;22.00;99.90;;;;;;5050425;28;20632;-81
2022/11/28 09:48:34;;;;;;;9.93;1.77;;;21.90;99.90;;;;;;5051114;28;20600;-80
2022/11/28 09:51:13;;;;;;;5.00;1.60;;;21.90;99.90;;;;;;5058848;28;20195;-80
2022/11/28 09:53:54;;;;;;;8.00;1.73;;;21.90;99.90;;;;;;5087162;28;20199;-80
2022/11/28 09:56:30;;;;;;;4.65;1.58;;;21.90;99.90;;;;;;5082120;28;20276;-80
2022/11/28 09:59:26;;;;;;;7.05;1.50;;;21.90;99.90;;;;;;5094259;28;20206;-81
2022/11/28 10:02:11;;;;;;;5.20;1.20;;;21.90;99.90;;;;;;5078184;28;20239;-81
2022/11/28 10:04:52;;;;;;;6.22;1.33;;;21.80;99.90;;;;;;5069554;28;20212;-81
2022/11/28 10:07:29;;;;;;;6.60;1.50;;;21.70;99.90;;;;;;5066251;28;20240;-80
2022/11/28 10:10:10;;;;;;;4.47;1.38;;;21.80;99.90;;;;;;5077572;28;20195;-80
2022/11/28 10:12:51;;;;;;;5.30;1.45;;;21.80;99.90;;;;;;5075056;28;20192;-80
2022/11/28 10:15:41;;;;;;;4.53;1.40;;;21.70;99.90;;;;;;5074592;28;20532;-80
2022/11/28 10:18:32;;;;;;;7.72;1.70;;;21.70;99.90;;;;;;5070240;28;20191;-81
2022/11/28 10:21:10;;;;;;;5.75;1.75;;;21.80;99.90;;;;;;5074808;28;20246;-81
2022/11/28 10:23:43;;;;;;;4.88;1.42;;;21.80;99.90;;;;;;5055653;28;20693;-80
2022/11/28 10:26:23;;;;;;;8.38;1.83;;;21.80;99.90;;;;;;5063020;28;20192;-81
2022/11/28 10:28:58;;;;;;;5.25;1.40;;;21.80;99.90;;;;;;5073145;28;20261;-80
2022/11/28 10:31:38;;;;;;;6.32;1.40;;;21.80;99.90;;;;;;5076591;28;20230;-82
2022/11/28 10:34:16;;;;;;;5.40;1.30;;;21.80;99.90;;;;;;5076688;28;20255;-81
2022/11/28 10:36:56;;;;;;;6.55;1.50;;;21.70;99.90;;;;;;5076447;28;20268;-82
2022/11/28 10:39:28;;;;;;;6.05;1.63;;;21.60;99.90;;;;;;5072761;28;20242;-81
2022/11/28 10:42:14;;;;;;;7.65;1.60;;;21.60;99.90;;;;;;5078877;28;20226;-84
2022/11/28 10:45:05;;;;;;;5.90;1.63;;;21.60;99.90;;;;;;5071003;28;20586;-80
2022/11/28 10:47:57;;;;;;;6.97;1.67;;;21.60;99.90;;;;;;5063160;28;20275;-80
2022/11/28 10:50:35;;;;;;;5.40;1.33;;;21.60;99.90;;;;;;5055242;28;20200;-80
2022/11/28 10:53:11;;;;;;;6.60;1.50;;;21.60;99.90;;;;;;5060729;28;20617;-81
2022/11/28 10:56:05;;;;;;;5.32;1.33;;;21.60;99.90;;;;;;5060309;28;20223;-81
2022/11/28 10:58:43;;;;;;;5.05;1.35;;;21.60;99.90;;;;;;5073312;28;20193;-79
2022/11/28 11:01:15;;;;;;;4.75;1.30;;;21.50;99.90;;;;;;5090563;28;20227;-81
2022/11/28 11:03:49;;;;;;;5.43;1.48;;;21.60;99.90;;;;;;5086843;28;20204;-81
2022/11/28 11:06:20;;;;;;;6.57;1.52;;;21.60;99.90;;;;;;5074960;28;20270;-80
2022/11/28 11:08:51;;;;;;;6.43;1.50;;;21.60;99.90;;;;;;5074568;28;20230;-81
2022/11/28 11:11:29;;;;;;;5.75;1.55;;;21.60;99.90;;;;;;5076982;28;20201;-80
2022/11/28 11:14:05;;;;;;;5.00;1.60;;;21.50;99.90;;;;;;5077627;28;20207;-80
2022/11/28 11:16:54;;;;;;;6.75;1.85;;;21.50;99.90;;;;;;5071647;28;20230;-81
2022/11/28 11:19:32;;;;;;;4.47;1.30;;;21.50;99.90;;;;;;5057067;28;20264;-80
2022/11/28 11:22:06;;;;;;;6.38;1.70;;;21.50;99.90;;;;;;5058848;28;20224;-80
2022/11/28 11:24:38;;;;;;;7.57;1.70;;;21.50;99.90;;;;;;5061112;28;20188;-81
2022/11/28 11:27:18;;;;;;;6.88;1.52;;;21.50;99.90;;;;;;5079826;28;20196;-80
2022/11/28 11:29:52;;;;;;;5.45;1.73;;;21.50;99.90;;;;;;5068620;28;20203;-81
2022/11/28 11:32:28;;;;;;;5.35;1.60;;;21.50;99.90;;;;;;5067769;28;20203;-81
2022/11/28 11:35:04;;;;;;;6.70;1.70;;;21.60;99.90;;;;;;5073502;28;20269;-82
2022/11/28 11:37:37;;;;;;;5.22;1.83;;;21.50;99.90;;;;;;5079035;28;20206;-81
2022/11/28 11:40:24;;;;;;;6.30;1.70;;;21.50;99.90;;;;;;5079851;28;20202;-80
2022/11/28 11:42:58;;;;;;;3.58;1.30;;;21.40;99.90;;;;;;5081295;28;20322;-81
2022/11/28 11:45:33;;;;;;;5.35;1.70;;;21.40;99.90;;;;;;5074889;28;20341;-80
2022/11/28 11:48:05;;;;;;;5.65;1.73;;;21.40;99.90;;;;;;5053959;28;20570;-80
2022/11/28 11:50:40;;;;;;;4.28;1.45;;;21.40;99.90;;;;;;5055595;28;20192;-80
2022/11/28 11:53:17;;;;;;;6.90;1.67;;;21.40;99.90;;;;;;5062627;28;20225;-79
2022/11/28 11:55:51;;;;;;;7.45;1.58;;;21.40;99.90;;;;;;5065864;28;20244;-79
2022/11/28 11:58:25;;;;;;;5.07;1.50;;;21.30;99.90;;;;;;5073224;28;20210;-79
2022/11/28 12:01:00;;;;;;;4.45;1.73;;;21.30;99.90;;;;;;5066189;28;20557;-80
2022/11/28 12:03:37;;;;;;;5.78;1.75;;;21.30;99.90;;;;;;5072944;28;20205;-80
2022/11/28 12:06:15;;;;;;;5.43;1.60;;;21.30;99.90;;;;;;5066975;28;20231;-80
2022/11/28 12:08:52;;;;;;;7.03;1.85;;;21.30;99.90;;;;;;5070900;28;20196;-80
2022/11/28 12:11:28;;;;;;;5.07;1.70;;;21.20;99.90;;;;;;5072901;28;20207;-79
2022/11/28 12:14:04;;;;;;;5.00;1.67;;;21.20;99.90;;;;;;5071177;28;20585;-79
2022/11/28 12:16:48;;;;;;;3.92;1.30;;;21.20;99.90;;;;;;5064663;28;20195;-79
2022/11/28 12:19:33;;;;;;;5.57;1.60;;;21.20;99.90;;;;;;5069468;28;20207;-80
2022/11/28 12:22:20;;;;;;;7.18;1.50;;;21.20;99.90;;;;;;5067225;28;20694;-80
2022/11/28 12:25:02;;;;;;;5.22;1.35;;;21.20;99.90;;;;;;5055290;28;20655;-80
2022/11/28 12:27:50;;;;;;;6.25;1.60;;;21.10;99.90;;;;;;5069315;28;20200;-81
2022/11/28 12:30:32;;;;;;;5.07;1.50;;;21.10;99.90;;;;;;5052321;28;20683;-80
2022/11/28 12:33:23;;;;;;;5.47;1.55;;;21.10;99.90;;;;;;5072360;28;20214;-80
2022/11/28 12:36:04;;;;;;;6.40;1.70;;;21.10;99.90;;;;;;5063289;28;20552;-80
2022/11/28 12:38:50;;;;;;;4.38;1.40;;;21.10;99.90;;;;;;5054456;28;20570;-80
2022/11/28 12:41:40;;;;;;;4.47;1.30;;;21.10;99.90;;;;;;5071442;28;20188;-79
2022/11/28 12:44:21;;;;;;;4.93;1.52;;;21.10;99.90;;;;;;5063617;28;20207;-79
2022/11/28 12:47:01;;;;;;;5.05;1.60;;;21.00;99.90;;;;;;5065832;28;20282;-80
2022/11/28 12:49:41;;;;;;;6.20;1.60;;;21.10;99.90;;;;;;5064016;28;20223;-80
2022/11/28 12:52:26;;;;;;;4.55;1.50;;;21.10;99.90;;;;;;5064341;28;20215;-81
2022/11/28 12:55:19;;;;;;;5.85;1.67;;;21.10;99.90;;;;;;5070598;28;20232;-81
2022/11/28 12:57:59;;;;;;;6.38;1.85;;;21.00;99.90;;;;;;5072321;28;20218;-81
2022/11/28 13:00:31;;;;;;;6.65;1.52;;;21.10;99.90;;;;;;5074501;28;20200;-81
2022/11/28 13:03:15;;;;;;;5.47;1.40;;;21.10;99.90;;;;;;5082716;28;20356;-80
2022/11/28 13:06:00;;;;;;;4.35;1.58;;;21.10;99.90;;;;;;5064942;28;20545;-81
2022/11/28 13:09:02;;;;;;;6.15;1.60;;;21.10;99.90;;;;;;5070815;28;20315;-81
2022/11/28 13:11:48;;;;;;;5.00;1.50;;;21.10;99.90;;;;;;5047351;28;20265;-81
2022/11/28 13:14:28;;;;;;;5.10;1.48;;;21.10;99.90;;;;;;5070542;28;20199;-82
2022/11/28 13:17:01;;;;;;;5.55;1.30;;;21.10;99.90;;;;;;5066410;28;20200;-80
2022/11/28 13:19:42;;;;;;;6.60;1.75;;;21.10;99.90;;;;;;5072668;28;20192;-81
2022/11/28 13:22:22;;;;;;;4.38;1.58;;;21.10;99.90;;;;;;5071411;28;20239;-81
2022/11/28 13:25:02;;;;;;;5.35;1.42;;;21.10;99.90;;;;;;5063698;28;20342;-81
2022/11/28 13:27:40;;;;;;;4.70;1.67;;;21.10;99.90;;;;;;5068755;28;20246;-81